»·PEaware :: UPS888 KONT-KABQ

UPS888 :: KONT-KABQ

FLIGHT INFORMATION

Flight Status: Arrived
Operator:
United Parcel Service
More flights by this operator :: More flights under this callsign
Pilot: Andrew C. (28419)
Aircraft: BOEING 757-200
(B752)
More flights by this aircraft type
Origin: KONT Ontario Intl
United States
Destination: KABQ Albuquerque Intl Sunport
United States
More flights between these airports :: More routes between these airports
Route: RAJEE3 AVRRY LANCY J134 DRK ZUN LAVAN3
File this flight plan on PilotEdge
Remarks: RMK / SIMBRIEF
Altitude:
(Current/Filed)
35,000ft
Speed:
(Current/Filed)
466kts
Departed: 24-Jul-20 06:45 PM
Arrived: 24-Jul-20 08:08 PM
Distance/Time
Traveled:
545nm/1:23
Distance/Time
To Go:
Arrived

Flight Plot

Page will automatically refresh every two minutes.


Map Options




Map Legend


Flown Route
Filed Route
Departure Airport
Arrival Airport
Navaid (VOR, NDB)
Fix

Horizontal Profiles

Position Reports

Time Latitude Longitude Heading Altitude Ground
Speed
24-Jul-20 18:24 34.050885 -117.579688 90 950ft 0kts
24-Jul-20 18:25 34.050885 -117.579688 90 950ft 0kts
24-Jul-20 18:26 34.050885 -117.579688 90 950ft 0kts
24-Jul-20 18:27 34.050885 -117.579688 90 950ft 0kts
24-Jul-20 18:28 34.050885 -117.579688 90 950ft 0kts
24-Jul-20 18:29 34.050885 -117.579688 90 950ft 0kts
24-Jul-20 18:30 34.050885 -117.579688 90 950ft 0kts
24-Jul-20 18:31 34.050885 -117.579688 90 950ft 0kts
24-Jul-20 18:32 34.050885 -117.579688 90 950ft 0kts
24-Jul-20 18:33 34.050885 -117.579688 90 950ft 0kts
24-Jul-20 18:34 34.050885 -117.579688 90 950ft 0kts
24-Jul-20 18:35 34.050885 -117.579688 90 950ft 0kts
24-Jul-20 18:36 34.050885 -117.579688 90 950ft 0kts
24-Jul-20 18:37 34.050856 -117.580210 60 950ft 2kts
24-Jul-20 18:38 34.050421 -117.580520 357 950ft 1kts
24-Jul-20 18:39 34.050386 -117.580518 359 950ft 0kts
24-Jul-20 18:40 34.050510 -117.580519 1 950ft 4kts
24-Jul-20 18:41 34.052390 -117.581200 274 950ft 6kts
24-Jul-20 18:42 34.053662 -117.582524 358 950ft 4kts
24-Jul-20 18:43 34.054956 -117.583131 272 950ft 12kts
24-Jul-20 18:44 34.054797 -117.618312 265 1434ft 165kts
24-Jul-20 18:45 34.014773 -117.624476 137 2932ft 227kts
24-Jul-20 18:46 33.966319 -117.575100 142 5236ft 233kts
24-Jul-20 18:47 33.912695 -117.525258 145 7005ft 268kts
24-Jul-20 18:48 33.850819 -117.473314 145 9057ft 273kts
24-Jul-20 18:49 33.783562 -117.416961 145 10321ft 339kts
24-Jul-20 18:50 33.711909 -117.333632 111 12403ft 379kts
24-Jul-20 18:51 33.696542 -117.205744 97 14973ft 396kts
24-Jul-20 18:52 33.683723 -117.071832 98 17327ft 413kts
24-Jul-20 18:53 33.670184 -116.932214 98 19356ft 431kts
24-Jul-20 18:54 33.655906 -116.786697 98 21164ft 447kts
24-Jul-20 18:55 33.641142 -116.636898 98 22958ft 458kts
24-Jul-20 18:56 33.625769 -116.482743 98 24531ft 472kts
24-Jul-20 18:57 33.610312 -116.324722 95 26018ft 485kts
24-Jul-20 18:58 33.606479 -116.161301 94 27355ft 497kts
24-Jul-20 18:59 33.619112 -115.995494 71 28549ft 513kts
24-Jul-20 19:00 33.669446 -115.833989 70 29677ft 523kts
24-Jul-20 19:01 33.720884 -115.670284 70 31049ft 524kts
24-Jul-20 19:02 33.774129 -115.508559 67 32509ft 519kts
24-Jul-20 19:03 33.830310 -115.350656 67 33825ft 514kts
24-Jul-20 19:04 33.885889 -115.193488 68 34837ft 507kts
24-Jul-20 19:05 33.940367 -115.038610 68 34831ft 504kts
24-Jul-20 19:06 33.994679 -114.883470 68 34828ft 501kts
24-Jul-20 19:07 34.048824 -114.728054 68 34829ft 503kts
24-Jul-20 19:08 34.102580 -114.572972 68 34828ft 501kts
24-Jul-20 19:09 34.156066 -114.417958 68 34819ft 500kts
24-Jul-20 19:10 34.209096 -114.263476 69 34810ft 499kts
24-Jul-20 19:11 34.261914 -114.108863 69 34893ft 498kts
24-Jul-20 19:12 34.306697 -113.951373 73 34999ft 496kts
24-Jul-20 19:13 34.350081 -113.793790 73 34999ft 495kts
24-Jul-20 19:14 34.393466 -113.635487 73 35000ft 496kts
24-Jul-20 19:15 34.436564 -113.477357 73 35001ft 496kts
24-Jul-20 19:16 34.479435 -113.319139 74 34998ft 495kts
24-Jul-20 19:17 34.522104 -113.160750 74 34999ft 495kts
24-Jul-20 19:18 34.564672 -113.001812 74 35010ft 495kts
24-Jul-20 19:19 34.606746 -112.843797 74 35107ft 494kts
24-Jul-20 19:20 34.648615 -112.685619 74 35148ft 493kts
24-Jul-20 19:21 34.690248 -112.527410 74 35203ft 492kts
24-Jul-20 19:22 34.712892 -112.365792 86 35204ft 486kts
24-Jul-20 19:23 34.728040 -112.202905 86 35206ft 485kts
24-Jul-20 19:24 34.742704 -112.040339 87 35216ft 485kts
24-Jul-20 19:25 34.757114 -111.877841 87 35235ft 483kts
24-Jul-20 19:26 34.771227 -111.716185 87 35244ft 482kts
24-Jul-20 19:27 34.785156 -111.554106 87 35251ft 482kts
24-Jul-20 19:28 34.798848 -111.392246 87 35258ft 482kts
24-Jul-20 19:29 34.812347 -111.230130 87 35263ft 481kts
24-Jul-20 19:30 34.825568 -111.068716 87 35261ft 481kts
24-Jul-20 19:31 34.838575 -110.907227 87 35217ft 480kts
24-Jul-20 19:32 34.851352 -110.745878 87 35200ft 480kts
24-Jul-20 19:33 34.863899 -110.584706 87 35198ft 479kts
24-Jul-20 19:34 34.876218 -110.423706 87 35196ft 478kts
24-Jul-20 19:35 34.888323 -110.262721 88 35194ft 477kts
24-Jul-20 19:36 34.900168 -110.102324 88 35200ft 477kts
24-Jul-20 19:37 34.911840 -109.941249 87 35224ft 476kts
24-Jul-20 19:38 34.923274 -109.780638 87 35231ft 476kts
24-Jul-20 19:39 34.934510 -109.619693 87 35231ft 476kts
24-Jul-20 19:40 34.945503 -109.459184 87 35231ft 477kts
24-Jul-20 19:41 34.956305 -109.298368 88 35231ft 476kts
24-Jul-20 19:42 34.959705 -109.138118 103 35245ft 471kts
24-Jul-20 19:43 34.930138 -108.983140 106 35260ft 470kts
24-Jul-20 19:44 34.898922 -108.831248 106 34618ft 451kts
24-Jul-20 19:45 34.867943 -108.682946 106 32784ft 455kts
24-Jul-20 19:46 34.836457 -108.533227 106 30935ft 459kts
24-Jul-20 19:47 34.804584 -108.382630 106 29074ft 455kts
24-Jul-20 19:48 34.773300 -108.235795 106 27260ft 442kts
24-Jul-20 19:49 34.742912 -108.094091 106 25517ft 429kts
24-Jul-20 19:50 34.713210 -107.956416 106 23732ft 413kts
24-Jul-20 19:51 34.683888 -107.821151 106 23228ft 422kts
24-Jul-20 19:52 34.679966 -107.687270 73 20524ft 408kts
24-Jul-20 19:53 34.727192 -107.564700 65 18900ft 396kts
24-Jul-20 19:54 34.777305 -107.446558 64 17199ft 387kts
24-Jul-20 19:55 34.826280 -107.331548 65 15660ft 379kts
24-Jul-20 19:56 34.858496 -107.212381 80 14203ft 368kts
24-Jul-20 19:57 34.879310 -107.092163 80 12765ft 354kts
24-Jul-20 19:58 34.898593 -106.979496 80 11590ft 325kts
24-Jul-20 19:59 34.915979 -106.877040 79 10771ft 291kts
24-Jul-20 20:00 34.931167 -106.787255 80 10338ft 247kts
24-Jul-20 20:01 34.944898 -106.705382 80 9718ft 252kts
24-Jul-20 20:02 34.954804 -106.622082 90 8943ft 235kts
24-Jul-20 20:03 34.961803 -106.548819 59 7909ft 212kts
24-Jul-20 20:04 35.007626 -106.507265 28 6968ft 192kts
24-Jul-20 20:05 35.041060 -106.523823 293 6525ft 157kts
24-Jul-20 20:06 35.044028 -106.575998 271 5375ft 149kts
24-Jul-20 20:07 35.044245 -106.603500 270 5324ft 27kts
24-Jul-20 20:08 35.044264 -106.613337 250 5324ft 20kts
24-Jul-20 20:09 35.040578 -106.613792 184 5324ft 12kts
24-Jul-20 20:10 35.034765 -106.617643 224 5324ft 28kts
24-Jul-20 20:11 35.032108 -106.622576 274 5324ft 1kts
24-Jul-20 20:12 35.031637 -106.623730 313 5324ft 0kts
24-Jul-20 20:13 35.031637 -106.623730 314 5324ft 0kts
24-Jul-20 20:14 35.031637 -106.623730 314 5324ft 0kts
24-Jul-20 20:15 35.031637 -106.623730 314 5324ft 0kts
24-Jul-20 20:16 35.031637 -106.623730 314 5324ft 0kts
24-Jul-20 20:17 35.031637 -106.623730 314 5324ft 0kts

Navigation Log

Ident Type
Flight plan parsing failed, navigation log unavailable